createdAt,value
2024-04-09T00:00:20.740Z,83.56
2024-04-09T00:01:22.926Z,83.80
2024-04-09T00:02:24.981Z,83.78
2024-04-09T00:03:29.457Z,83.61
2024-04-09T00:04:31.717Z,83.47
2024-04-09T00:05:47.222Z,83.76
2024-04-09T00:06:53.604Z,83.64
2024-04-09T00:07:57.586Z,84.19
2024-04-09T00:08:59.950Z,84.05
2024-04-09T00:10:06.587Z,85.00
2024-04-09T00:11:22.794Z,83.77
2024-04-09T00:12:27.313Z,84.28
2024-04-09T00:13:31.523Z,83.50
2024-04-09T00:14:37.688Z,83.56
2024-04-09T00:15:40.390Z,84.32
2024-04-09T00:16:47.782Z,84.26
2024-04-09T00:17:55.975Z,84.28
2024-04-09T00:18:59.414Z,83.39
2024-04-09T00:20:09.636Z,84.15
2024-04-09T00:21:12.394Z,83.87
2024-04-09T00:22:14.890Z,84.19
2024-04-09T00:23:16.868Z,84.66
2024-04-09T00:24:19.718Z,84.10
2024-04-09T00:25:26.538Z,84.74
2024-04-09T00:26:31.799Z,83.73
2024-04-09T00:27:35.634Z,83.66
2024-04-09T00:28:37.800Z,83.00
2024-04-09T00:29:40.308Z,84.22
2024-04-09T00:30:46.957Z,84.79
2024-04-09T00:31:49.219Z,84.88
2024-04-09T00:32:52.344Z,84.75
2024-04-09T00:33:57.400Z,84.85
2024-04-09T00:34:59.770Z,85.18
2024-04-09T00:36:15.065Z,84.77
2024-04-09T00:37:20.716Z,85.32
2024-04-09T00:38:23.495Z,84.86
2024-04-09T00:39:29.173Z,84.36
2024-04-09T00:40:31.074Z,85.02
2024-04-09T00:41:33.983Z,84.28
2024-04-09T00:42:38.936Z,84.72
2024-04-09T00:43:42.606Z,84.79
2024-04-09T00:44:45.135Z,84.51
2024-04-09T00:45:51.284Z,84.40
2024-04-09T00:46:53.647Z,85.04
2024-04-09T00:48:00.332Z,85.35
2024-04-09T00:49:02.807Z,85.16
2024-04-09T00:50:11.473Z,85.68
2024-04-09T00:51:18.373Z,84.93
2024-04-09T00:52:20.289Z,84.94
2024-04-09T00:53:23.234Z,84.42
2024-04-09T00:54:25.745Z,84.70
2024-04-09T00:55:29.002Z,84.66
2024-04-09T00:56:33.799Z,84.43
2024-04-09T00:57:43.908Z,84.36
2024-04-09T00:58:47.153Z,84.67
2024-04-09T00:59:50.135Z,84.06
2024-04-09T01:00:53.253Z,83.81
2024-04-09T01:01:56.143Z,84.06
2024-04-09T01:02:59.172Z,85.04
2024-04-09T01:04:01.643Z,84.34
2024-04-09T01:05:05.845Z,84.28
2024-04-09T01:06:09.438Z,83.83
2024-04-09T01:07:11.825Z,85.13
2024-04-09T01:08:14.150Z,84.50
2024-04-09T01:09:16.895Z,84.58
2024-04-09T01:10:19.108Z,84.00
2024-04-09T01:11:21.049Z,83.57
2024-04-09T01:12:23.914Z,83.21
2024-04-09T01:13:25.893Z,84.04
2024-04-09T01:14:29.593Z,84.34
2024-04-09T01:15:32.725Z,84.41
2024-04-09T01:16:35.590Z,84.55
2024-04-09T01:17:38.366Z,84.93
2024-04-09T01:18:40.661Z,85.30
2024-04-09T01:19:42.832Z,85.10
2024-04-09T01:20:51.332Z,85.66
2024-04-09T01:21:54.057Z,85.84
2024-04-09T01:22:56.871Z,86.53
2024-04-09T01:23:59.258Z,85.69
2024-04-09T01:25:02.329Z,85.67
2024-04-09T01:26:04.325Z,84.74
2024-04-09T01:27:13.125Z,85.51
2024-04-09T01:28:15.025Z,85.52
2024-04-09T01:29:17.207Z,86.06
2024-04-09T01:30:19.428Z,85.63
2024-04-09T01:31:23.219Z,85.34
2024-04-09T01:32:27.262Z,84.74
2024-04-09T01:33:29.790Z,84.62
2024-04-09T01:34:36.983Z,84.27
2024-04-09T01:35:39.329Z,84.60
2024-04-09T01:36:43.134Z,85.30
2024-04-09T01:37:45.231Z,85.37
2024-04-09T01:38:48.353Z,85.46
2024-04-09T01:39:50.299Z,85.34
2024-04-09T01:40:52.859Z,85.62
2024-04-09T01:41:55.930Z,85.55
2024-04-09T01:42:58.076Z,85.63
2024-04-09T01:44:00.152Z,85.20
2024-04-09T01:45:02.692Z,84.67
2024-04-09T01:46:10.889Z,84.92
2024-04-09T01:47:14.585Z,84.33
2024-04-09T01:48:17.554Z,84.91
2024-04-09T01:49:20.275Z,85.38
2024-04-09T01:50:22.950Z,84.75
2024-04-09T01:51:25.201Z,84.22
2024-04-09T01:52:27.243Z,85.47
2024-04-09T01:53:29.401Z,85.89
2024-04-09T01:54:31.728Z,85.54
2024-04-09T01:55:40.229Z,85.06
2024-04-09T01:56:43.960Z,85.24
2024-04-09T01:57:48.970Z,84.85
2024-04-09T01:58:52.473Z,85.44
2024-04-09T01:59:54.531Z,84.82
2024-04-09T02:01:11.528Z,85.50
2024-04-09T02:02:16.756Z,85.38
2024-04-09T02:03:19.036Z,85.88
2024-04-09T02:04:21.380Z,86.11
2024-04-09T02:05:23.699Z,86.25
2024-04-09T02:06:28.639Z,86.40
2024-04-09T02:07:30.453Z,85.86
2024-04-09T02:08:34.007Z,85.97
2024-04-09T02:09:38.002Z,85.61
2024-04-09T02:10:42.021Z,85.98
2024-04-09T02:11:44.388Z,85.17
2024-04-09T02:12:46.354Z,84.85
2024-04-09T02:13:49.728Z,85.21
2024-04-09T02:14:51.872Z,85.84
2024-04-09T02:15:55.246Z,86.05
2024-04-09T02:16:57.632Z,85.57
2024-04-09T02:17:59.597Z,85.17
2024-04-09T02:19:03.915Z,84.89
2024-04-09T02:20:10.321Z,84.59
2024-04-09T02:21:16.548Z,84.35
2024-04-09T02:22:18.735Z,84.72
2024-04-09T02:23:20.897Z,84.40
2024-04-09T02:24:24.221Z,84.37
2024-04-09T02:25:26.475Z,84.48
2024-04-09T02:26:31.757Z,84.45
2024-04-09T02:27:34.122Z,84.78
2024-04-09T02:28:36.313Z,85.09
2024-04-09T02:29:38.692Z,84.75
2024-04-09T02:30:40.828Z,85.81
2024-04-09T02:31:43.958Z,85.54
2024-04-09T02:32:45.921Z,85.88
2024-04-09T02:33:50.614Z,86.00
2024-04-09T02:34:53.587Z,85.78
2024-04-09T02:36:04.606Z,86.19
2024-04-09T02:37:06.933Z,85.96
2024-04-09T02:38:10.502Z,86.32
2024-04-09T02:39:14.383Z,86.13
2024-04-09T02:40:17.023Z,86.41
2024-04-09T02:41:20.806Z,86.43
2024-04-09T02:42:23.377Z,85.65
2024-04-09T02:43:28.290Z,86.44
2024-04-09T02:44:32.645Z,86.39
2024-04-09T02:45:35.205Z,85.60
2024-04-09T02:46:39.493Z,85.91
2024-04-09T02:47:41.831Z,86.11
2024-04-09T02:48:44.281Z,85.62
2024-04-09T02:49:47.054Z,86.42
2024-04-09T02:50:54.456Z,86.03
2024-04-09T02:51:57.188Z,86.09
2024-04-09T02:52:59.234Z,85.87
2024-04-09T02:54:01.499Z,84.98
2024-04-09T02:55:06.389Z,84.85
2024-04-09T02:56:11.583Z,84.68
2024-04-09T02:57:13.606Z,84.51
2024-04-09T02:58:16.191Z,84.24
2024-04-09T02:59:18.442Z,85.04
2024-04-09T03:00:20.513Z,85.01
2024-04-09T03:01:22.434Z,85.92
2024-04-09T03:02:25.391Z,86.39
2024-04-09T03:03:27.719Z,87.11
2024-04-09T03:04:34.911Z,86.49
2024-04-09T03:05:36.987Z,86.47
2024-04-09T03:06:39.240Z,86.66
2024-04-09T03:07:47.573Z,86.60
2024-04-09T03:08:51.553Z,86.49
2024-04-09T03:09:53.774Z,87.30
2024-04-09T03:10:56.269Z,86.94
2024-04-09T03:12:02.005Z,86.48
2024-04-09T03:13:04.622Z,86.47
2024-04-09T03:14:10.996Z,85.88
2024-04-09T03:15:15.340Z,86.14
2024-04-09T03:16:22.065Z,86.55
2024-04-09T03:17:24.069Z,86.08
2024-04-09T03:18:25.989Z,85.58
2024-04-09T03:19:29.577Z,85.27
2024-04-09T03:20:31.828Z,85.03
2024-04-09T03:21:34.781Z,85.36
2024-04-09T03:22:40.331Z,85.37
2024-04-09T03:23:42.748Z,84.29
2024-04-09T03:24:56.280Z,84.62
2024-04-09T03:25:58.514Z,85.02
2024-04-09T03:27:00.794Z,85.05
2024-04-09T03:28:05.103Z,85.96
2024-04-09T03:29:07.502Z,85.35
2024-04-09T03:30:10.433Z,85.86
2024-04-09T03:31:12.381Z,85.74
2024-04-09T03:32:14.198Z,86.21
2024-04-09T03:33:16.512Z,86.33
2024-04-09T03:34:18.987Z,86.20
2024-04-09T03:35:21.209Z,86.17
2024-04-09T03:36:23.820Z,86.80
2024-04-09T03:37:25.666Z,86.11
2024-04-09T03:38:27.724Z,86.65
2024-04-09T03:39:30.714Z,86.75
2024-04-09T03:40:32.871Z,87.00
2024-04-09T03:41:35.061Z,86.22
2024-04-09T03:42:37.356Z,86.68
2024-04-09T03:43:41.275Z,86.50
2024-04-09T03:44:43.483Z,85.98
2024-04-09T03:46:04.138Z,85.63
2024-04-09T03:47:06.159Z,86.09
2024-04-09T03:48:09.134Z,85.35
2024-04-09T03:49:12.709Z,85.03
2024-04-09T03:50:15.142Z,84.98
2024-04-09T03:51:17.632Z,84.87
2024-04-09T03:52:19.790Z,85.50
2024-04-09T03:53:21.900Z,85.33
2024-04-09T03:54:23.821Z,85.86
2024-04-09T03:55:26.026Z,85.77
2024-04-09T03:56:30.216Z,85.65
2024-04-09T03:57:32.501Z,85.97
2024-04-09T03:58:38.299Z,85.79
2024-04-09T03:59:40.410Z,86.17
2024-04-09T04:00:42.593Z,85.90
2024-04-09T04:01:44.719Z,85.57
2024-04-09T04:02:49.294Z,85.19
2024-04-09T04:03:51.305Z,85.54
2024-04-09T04:04:53.416Z,84.97
2024-04-09T04:05:57.192Z,85.62
2024-04-09T04:06:59.340Z,85.26
2024-04-09T04:08:01.296Z,85.22
2024-04-09T04:09:03.727Z,85.73
2024-04-09T04:10:07.910Z,85.39
2024-04-09T04:11:13.134Z,85.45
2024-04-09T04:12:15.395Z,85.42
2024-04-09T04:13:24.329Z,85.30
2024-04-09T04:14:26.453Z,85.18
2024-04-09T04:15:28.373Z,84.78
2024-04-09T04:16:33.201Z,85.38
2024-04-09T04:17:36.110Z,85.16
2024-04-09T04:18:41.094Z,84.99
2024-04-09T04:19:44.440Z,84.86
2024-04-09T04:20:54.247Z,85.25
2024-04-09T04:21:56.555Z,84.64
2024-04-09T04:22:59.134Z,85.08
2024-04-09T04:24:01.414Z,84.30
2024-04-09T04:25:03.452Z,83.20
2024-04-09T04:26:08.171Z,83.42
2024-04-09T04:27:12.208Z,83.36
2024-04-09T04:28:14.331Z,83.71
2024-04-09T04:29:17.129Z,83.69
2024-04-09T04:30:19.295Z,83.50
2024-04-09T04:31:23.924Z,83.60
2024-04-09T04:32:27.685Z,83.72
2024-04-09T04:33:30.993Z,83.53
2024-04-09T04:34:33.108Z,83.52
2024-04-09T04:35:35.191Z,83.42
2024-04-09T04:36:37.737Z,83.18
2024-04-09T04:37:39.884Z,83.14
2024-04-09T04:38:42.789Z,82.37
2024-04-09T04:39:44.876Z,82.42
2024-04-09T04:40:47.487Z,81.63
2024-04-09T04:41:50.929Z,82.09
2024-04-09T04:42:53.138Z,81.48
2024-04-09T04:43:56.134Z,81.13
2024-04-09T04:44:58.402Z,81.01
2024-04-09T04:46:00.847Z,81.18
2024-04-09T04:47:03.101Z,80.96
2024-04-09T04:48:05.352Z,79.79
2024-04-09T04:49:07.371Z,79.36
2024-04-09T04:50:11.754Z,78.92
2024-04-09T04:51:13.860Z,77.91
2024-04-09T04:52:20.351Z,77.01
2024-04-09T04:53:22.202Z,76.66
2024-04-09T04:54:24.553Z,75.93
2024-04-09T04:55:27.714Z,75.66
2024-04-09T04:56:30.383Z,75.55
2024-04-09T04:57:33.909Z,75.45
2024-04-09T04:58:36.222Z,76.04
2024-04-09T04:59:38.126Z,75.82
2024-04-09T05:00:40.517Z,75.25
2024-04-09T05:01:43.593Z,75.49
2024-04-09T05:02:46.107Z,75.21
2024-04-09T05:03:49.059Z,74.90
2024-04-09T05:04:53.692Z,74.75
2024-04-09T05:05:55.869Z,75.45
2024-04-09T05:06:58.071Z,73.87
2024-04-09T05:08:00.673Z,74.47
2024-04-09T05:09:03.232Z,74.27
2024-04-09T05:10:14.489Z,73.75
2024-04-09T05:11:17.049Z,73.72
2024-04-09T05:12:19.321Z,73.30
2024-04-09T05:13:21.223Z,71.71
2024-04-09T05:14:23.332Z,70.63
2024-04-09T05:15:25.460Z,70.19
2024-04-09T05:16:31.042Z,70.76
2024-04-09T05:17:33.758Z,71.20
2024-04-09T05:18:36.216Z,71.72
2024-04-09T05:19:38.425Z,69.47
2024-04-09T05:20:41.547Z,68.77
2024-04-09T05:21:44.117Z,68.49
2024-04-09T05:22:47.853Z,69.97
2024-04-09T05:23:52.633Z,69.19
2024-04-09T05:24:56.252Z,68.19
2024-04-09T05:25:59.225Z,68.53
2024-04-09T05:27:02.804Z,67.18
2024-04-09T05:28:05.093Z,67.24
2024-04-09T05:29:07.820Z,67.97
2024-04-09T05:30:12.386Z,67.85
2024-04-09T05:31:14.607Z,66.67
2024-04-09T05:32:16.997Z,67.66
2024-04-09T05:33:19.187Z,67.96
2024-04-09T05:34:21.186Z,68.18
2024-04-09T05:35:26.865Z,67.87
2024-04-09T05:36:31.779Z,66.45
2024-04-09T05:37:35.988Z,67.41
2024-04-09T05:38:38.607Z,66.99
2024-04-09T05:39:42.954Z,66.39
2024-04-09T05:40:45.095Z,66.40
2024-04-09T05:41:48.803Z,66.04
2024-04-09T05:42:51.221Z,66.81
2024-04-09T05:43:53.460Z,67.95
2024-04-09T05:44:55.596Z,66.78
2024-04-09T05:45:58.525Z,66.98
2024-04-09T05:47:03.338Z,65.73
2024-04-09T05:48:06.060Z,65.35
2024-04-09T05:49:08.324Z,63.82
2024-04-09T05:50:11.280Z,62.39
2024-04-09T05:51:14.981Z,62.02
2024-04-09T05:52:17.194Z,63.11
2024-04-09T05:53:19.218Z,63.33
2024-04-09T05:54:25.868Z,62.75
2024-04-09T05:55:27.886Z,63.60
2024-04-09T05:56:31.999Z,61.51
2024-04-09T05:57:37.160Z,62.05
2024-04-09T05:58:39.131Z,62.68
2024-04-09T05:59:41.073Z,62.32
2024-04-09T06:00:47.350Z,62.60
2024-04-09T06:01:52.132Z,62.39
2024-04-09T06:02:54.296Z,63.23
2024-04-09T06:03:56.757Z,64.43
2024-04-09T06:04:59.617Z,64.11
2024-04-09T06:06:01.778Z,62.61
2024-04-09T06:07:04.242Z,61.84
2024-04-09T06:08:06.956Z,61.66
2024-04-09T06:09:09.119Z,62.35
2024-04-09T06:10:14.499Z,62.67
2024-04-09T06:11:17.777Z,62.98
2024-04-09T06:12:20.072Z,62.90
2024-04-09T06:13:21.925Z,63.22
2024-04-09T06:14:24.124Z,63.18
2024-04-09T06:15:26.190Z,63.50
2024-04-09T06:16:28.073Z,64.07
2024-04-09T06:17:37.317Z,63.15
2024-04-09T06:18:39.743Z,63.38
2024-04-09T06:19:43.227Z,62.16
2024-04-09T06:20:46.116Z,61.81
2024-04-09T06:21:49.362Z,61.67
2024-04-09T06:22:52.431Z,61.41
2024-04-09T06:23:54.331Z,61.27
2024-04-09T06:24:56.762Z,61.89
2024-04-09T06:25:59.308Z,61.81
2024-04-09T06:27:01.553Z,62.30
2024-04-09T06:28:04.388Z,61.40
2024-04-09T06:29:06.245Z,63.20
2024-04-09T06:30:10.427Z,63.47
2024-04-09T06:31:12.950Z,62.11
2024-04-09T06:32:15.116Z,62.48
2024-04-09T06:33:17.193Z,61.14
2024-04-09T06:34:19.438Z,61.05
2024-04-09T06:35:22.263Z,60.44
2024-04-09T06:36:27.482Z,61.46
2024-04-09T06:37:30.444Z,61.07
2024-04-09T06:38:32.763Z,61.37
2024-04-09T06:39:34.640Z,60.55
2024-04-09T06:40:36.818Z,60.63
2024-04-09T06:41:38.687Z,60.26
2024-04-09T06:42:40.811Z,61.23
2024-04-09T06:43:42.714Z,61.13
2024-04-09T06:44:46.450Z,61.92
2024-04-09T06:45:49.233Z,62.28
2024-04-09T06:46:52.858Z,61.80
2024-04-09T06:47:56.781Z,62.17
2024-04-09T06:49:01.463Z,60.45
2024-04-09T06:50:04.813Z,60.29
2024-04-09T06:51:06.985Z,60.47
2024-04-09T06:52:09.907Z,61.85
2024-04-09T06:53:12.001Z,60.50
2024-04-09T06:54:15.708Z,61.09
2024-04-09T06:55:19.396Z,61.18
2024-04-09T06:56:21.530Z,60.72
2024-04-09T06:57:23.936Z,61.40
2024-04-09T06:58:29.466Z,62.21
2024-04-09T06:59:33.052Z,62.16
2024-04-09T07:00:35.213Z,60.39
2024-04-09T07:01:37.640Z,60.50
2024-04-09T07:02:41.467Z,61.38
2024-04-09T07:03:44.722Z,60.72
2024-04-09T07:04:47.741Z,60.33
2024-04-09T07:05:49.648Z,60.29
2024-04-09T07:06:53.048Z,60.42
2024-04-09T07:07:55.517Z,60.94
2024-04-09T07:09:03.728Z,61.15
2024-04-09T07:10:09.264Z,60.37
2024-04-09T07:11:11.349Z,61.51
2024-04-09T07:12:13.470Z,60.88
2024-04-09T07:13:16.091Z,60.10
2024-04-09T07:14:18.227Z,59.28
2024-04-09T07:15:26.903Z,58.80
2024-04-09T07:16:29.404Z,59.38
2024-04-09T07:17:31.443Z,61.07
2024-04-09T07:18:37.395Z,58.98
2024-04-09T07:19:42.810Z,58.10
2024-04-09T07:20:47.267Z,56.18
2024-04-09T07:21:49.481Z,56.26
2024-04-09T07:22:51.359Z,53.58
2024-04-09T07:23:53.563Z,54.16
2024-04-09T07:24:55.484Z,54.74
2024-04-09T07:25:57.352Z,54.77
2024-04-09T07:26:59.236Z,53.48
2024-04-09T07:28:01.410Z,53.34
2024-04-09T07:29:06.532Z,53.87
2024-04-09T07:30:09.604Z,54.92
2024-04-09T07:31:11.984Z,55.08
2024-04-09T07:32:16.606Z,54.17
2024-04-09T07:33:19.582Z,53.10
2024-04-09T07:34:28.637Z,55.66
2024-04-09T07:35:33.762Z,53.02
2024-04-09T07:36:36.043Z,55.00
2024-04-09T07:37:38.177Z,54.16
2024-04-09T07:38:41.347Z,52.71
2024-04-09T07:39:44.663Z,53.05
2024-04-09T07:40:46.534Z,54.57
2024-04-09T07:41:49.194Z,52.69
2024-04-09T07:42:51.603Z,54.07
2024-04-09T07:43:55.471Z,51.48
2024-04-09T07:44:58.054Z,51.70
2024-04-09T07:46:00.997Z,51.93
2024-04-09T07:47:04.047Z,51.35
2024-04-09T07:48:10.079Z,51.76
2024-04-09T07:49:13.611Z,51.88
2024-04-09T07:50:16.059Z,52.00
2024-04-09T07:51:17.908Z,52.64
2024-04-09T07:52:20.020Z,52.10
2024-04-09T07:53:22.746Z,52.12
2024-04-09T07:54:26.640Z,52.08
2024-04-09T07:55:29.529Z,53.00
2024-04-09T07:56:31.493Z,53.38
2024-04-09T07:57:39.582Z,52.86
2024-04-09T07:58:45.686Z,51.66
2024-04-09T07:59:48.848Z,50.45
2024-04-09T08:00:51.440Z,52.55
2024-04-09T08:01:53.918Z,52.88
2024-04-09T08:02:58.449Z,50.98
2024-04-09T08:04:01.490Z,52.35
2024-04-09T08:05:08.424Z,53.05
2024-04-09T08:06:14.970Z,52.20
2024-04-09T08:07:17.159Z,52.83
2024-04-09T08:08:19.763Z,52.36
2024-04-09T08:09:22.070Z,52.32
2024-04-09T08:10:25.809Z,52.26
2024-04-09T08:11:27.949Z,51.67
2024-04-09T08:12:30.395Z,51.57
2024-04-09T08:13:32.347Z,52.57
2024-04-09T08:14:34.629Z,49.88
2024-04-09T08:15:37.596Z,50.80
2024-04-09T08:16:39.690Z,50.13
2024-04-09T08:17:42.762Z,51.89
2024-04-09T08:18:45.082Z,49.96
2024-04-09T08:19:47.380Z,50.79
2024-04-09T08:20:49.363Z,50.34
2024-04-09T08:21:52.113Z,48.20
2024-04-09T08:22:54.000Z,48.09
2024-04-09T08:23:56.553Z,47.67
2024-04-09T08:24:58.352Z,45.89
2024-04-09T08:26:00.303Z,44.95
2024-04-09T08:27:04.458Z,45.52
2024-04-09T08:28:09.032Z,44.72
2024-04-09T08:29:15.984Z,46.08
2024-04-09T08:30:18.513Z,43.73
2024-04-09T08:31:32.102Z,43.58
2024-04-09T08:32:37.528Z,42.87
2024-04-09T08:33:39.661Z,44.77
2024-04-09T08:35:01.688Z,43.63
2024-04-09T08:36:24.346Z,42.02
2024-04-09T08:37:46.706Z,42.53
2024-04-09T08:39:09.786Z,41.30
2024-04-09T08:40:31.892Z,41.92
2024-04-09T08:41:53.922Z,43.42
2024-04-09T08:43:19.996Z,41.78
2024-04-09T08:44:45.470Z,41.14
2024-04-09T08:46:11.568Z,42.44
2024-04-09T08:47:34.341Z,42.46
2024-04-09T08:49:00.182Z,42.66
2024-04-09T08:50:06.394Z,41.44
2024-04-09T08:51:11.785Z,42.10
2024-04-09T08:52:17.715Z,42.98
2024-04-09T08:53:23.761Z,42.16
2024-04-09T08:54:29.986Z,41.94
2024-04-09T08:55:35.508Z,43.48
2024-04-09T08:56:37.561Z,42.78
2024-04-09T08:57:39.575Z,44.00
2024-04-09T08:58:41.855Z,42.79
2024-04-09T08:59:44.324Z,43.87
2024-04-09T09:00:46.853Z,43.68
2024-04-09T09:01:49.111Z,42.69
2024-04-09T09:02:52.943Z,42.07
2024-04-09T09:03:55.655Z,42.04
2024-04-09T09:04:57.695Z,41.27
2024-04-09T09:06:05.396Z,42.31
2024-04-09T09:07:14.774Z,43.89
2024-04-09T09:08:16.644Z,43.82
2024-04-09T09:09:27.321Z,43.98
2024-04-09T09:10:49.243Z,43.40
2024-04-09T09:12:11.442Z,42.05
2024-04-09T09:13:39.183Z,41.78
2024-04-09T09:15:16.668Z,42.54
2024-04-09T09:16:39.154Z,40.23
2024-04-09T09:18:04.660Z,42.64
2024-04-09T09:19:26.707Z,41.85
2024-04-09T09:20:48.787Z,43.43
2024-04-09T09:22:13.234Z,43.84
2024-04-09T09:23:38.520Z,43.62
2024-04-09T09:25:00.681Z,44.19
2024-04-09T09:26:22.986Z,43.31
2024-04-09T09:27:45.283Z,41.02
2024-04-09T09:29:07.499Z,43.69
2024-04-09T09:30:29.758Z,43.36
2024-04-09T09:31:52.058Z,42.53
2024-04-09T09:33:17.610Z,42.79
2024-04-09T09:35:16.437Z,42.55
2024-04-09T09:36:38.346Z,42.65
2024-04-09T09:38:02.210Z,44.15
2024-04-09T09:39:26.669Z,43.13
2024-04-09T09:40:51.818Z,42.04
2024-04-09T09:42:17.523Z,43.35
2024-04-09T09:43:41.663Z,44.81
2024-04-09T09:44:45.385Z,46.00
2024-04-09T09:45:50.903Z,43.59
2024-04-09T09:46:54.593Z,44.38
2024-04-09T09:48:19.547Z,44.99
2024-04-09T09:49:23.704Z,43.97
2024-04-09T09:50:47.034Z,43.38
2024-04-09T09:51:51.392Z,45.73
2024-04-09T09:52:54.026Z,44.83
2024-04-09T09:53:57.964Z,43.76
2024-04-09T09:55:03.835Z,44.47
2024-04-09T09:56:09.122Z,46.22
2024-04-09T09:57:17.399Z,42.14
2024-04-09T09:58:24.320Z,44.22
2024-04-09T09:59:39.843Z,42.94
2024-04-09T10:00:44.901Z,43.53
2024-04-09T10:01:50.351Z,43.52
2024-04-09T10:02:54.028Z,42.52
2024-04-09T10:03:56.736Z,43.99
2024-04-09T10:05:02.038Z,43.39
2024-04-09T10:06:19.687Z,44.00
2024-04-09T10:07:23.324Z,44.97
2024-04-09T10:08:29.989Z,45.37
2024-04-09T10:09:49.851Z,45.56
2024-04-09T10:10:52.124Z,44.41
2024-04-09T10:11:53.972Z,44.18
2024-04-09T10:13:09.747Z,45.75
2024-04-09T10:14:22.796Z,43.58
2024-04-09T10:15:28.725Z,44.87
2024-04-09T10:16:32.028Z,44.10
2024-04-09T10:17:52.808Z,42.39
2024-04-09T10:18:58.108Z,43.52
2024-04-09T10:20:02.322Z,44.15
2024-04-09T10:21:06.212Z,43.47
2024-04-09T10:22:08.325Z,44.63
2024-04-09T10:23:13.699Z,43.29
2024-04-09T10:24:16.162Z,41.58
2024-04-09T10:25:23.929Z,43.54
2024-04-09T10:26:28.007Z,45.23
2024-04-09T10:27:30.830Z,43.03
2024-04-09T10:28:36.324Z,42.98
2024-04-09T10:29:57.365Z,42.81
2024-04-09T10:31:19.528Z,43.12
2024-04-09T10:32:27.987Z,42.24
2024-04-09T10:33:35.882Z,42.37
2024-04-09T10:34:38.384Z,42.20
2024-04-09T10:35:43.646Z,39.93
2024-04-09T10:36:48.731Z,43.63
2024-04-09T10:37:52.752Z,40.44
2024-04-09T10:38:58.917Z,39.50
2024-04-09T10:40:00.815Z,39.35
2024-04-09T10:41:03.976Z,39.79
2024-04-09T10:42:07.850Z,39.79
2024-04-09T10:43:10.879Z,39.96
2024-04-09T10:44:12.837Z,41.25
2024-04-09T10:45:16.413Z,41.04
2024-04-09T10:46:18.622Z,39.33
2024-04-09T10:47:20.920Z,41.32
2024-04-09T10:48:24.408Z,39.07
2024-04-09T10:49:26.803Z,38.22
2024-04-09T10:50:30.977Z,38.82
2024-04-09T10:51:33.698Z,38.87
2024-04-09T10:52:37.015Z,39.06
2024-04-09T10:53:39.144Z,38.81
2024-04-09T10:54:41.159Z,37.34
2024-04-09T10:55:45.797Z,39.09
2024-04-09T10:56:59.855Z,38.78
2024-04-09T10:58:02.012Z,38.52
2024-04-09T10:59:17.236Z,38.67
2024-04-09T11:00:24.372Z,38.45
2024-04-09T11:01:27.165Z,39.91
2024-04-09T11:02:32.314Z,39.73
2024-04-09T11:03:34.864Z,38.81
2024-04-09T11:04:40.322Z,38.26
2024-04-09T11:05:43.402Z,39.48
2024-04-09T11:06:45.914Z,40.01
2024-04-09T11:07:50.544Z,38.32
2024-04-09T11:08:52.428Z,39.61
2024-04-09T11:09:58.596Z,39.65
2024-04-09T11:11:02.076Z,39.81
2024-04-09T11:12:06.923Z,38.69
2024-04-09T11:13:09.575Z,37.44
2024-04-09T11:14:13.051Z,38.80
2024-04-09T11:15:16.300Z,40.41
2024-04-09T11:16:19.471Z,38.22
2024-04-09T11:17:23.661Z,38.60
2024-04-09T11:18:26.042Z,39.33
2024-04-09T11:19:29.786Z,39.13
2024-04-09T11:20:32.618Z,39.22
2024-04-09T11:21:36.710Z,41.17
2024-04-09T11:22:42.636Z,39.37
2024-04-09T11:23:44.898Z,37.14
2024-04-09T11:24:47.263Z,37.67
2024-04-09T11:25:52.409Z,38.59
2024-04-09T11:26:54.655Z,39.16
2024-04-09T11:27:58.127Z,38.64
2024-04-09T11:29:00.530Z,38.14
2024-04-09T11:30:03.278Z,35.70
2024-04-09T11:31:06.396Z,36.95
2024-04-09T11:32:10.202Z,35.52
2024-04-09T11:33:16.730Z,35.49
2024-04-09T11:34:31.778Z,35.75
2024-04-09T11:35:33.925Z,39.32
2024-04-09T11:36:37.355Z,39.14
2024-04-09T11:37:57.467Z,39.52
2024-04-09T11:38:59.791Z,39.60
2024-04-09T11:40:03.536Z,38.62
2024-04-09T11:41:10.489Z,38.88
2024-04-09T11:42:12.582Z,39.00
2024-04-09T11:43:14.875Z,37.75
2024-04-09T11:44:24.190Z,38.98
2024-04-09T11:45:28.781Z,37.43
2024-04-09T11:46:30.762Z,40.95
2024-04-09T11:47:33.053Z,38.41
2024-04-09T11:48:36.789Z,38.41
2024-04-09T11:49:39.224Z,41.14
2024-04-09T11:50:41.465Z,39.40
2024-04-09T11:51:43.900Z,37.83
2024-04-09T11:52:46.317Z,39.70
2024-04-09T11:53:49.635Z,38.13
2024-04-09T11:54:51.637Z,39.19
2024-04-09T11:55:56.191Z,38.91
2024-04-09T11:56:58.325Z,39.45
2024-04-09T11:58:00.241Z,39.42
2024-04-09T11:59:02.415Z,39.75
2024-04-09T12:00:05.042Z,38.90
2024-04-09T12:01:11.055Z,39.09
2024-04-09T12:02:13.658Z,36.86
2024-04-09T12:03:16.262Z,38.09
2024-04-09T12:04:20.929Z,36.98
2024-04-09T12:05:27.288Z,39.98
2024-04-09T12:06:29.861Z,39.99
2024-04-09T12:07:32.055Z,37.55
2024-04-09T12:08:34.620Z,38.37
2024-04-09T12:09:37.114Z,37.27
2024-04-09T12:10:39.114Z,38.89
2024-04-09T12:11:41.713Z,40.35
2024-04-09T12:12:44.120Z,41.64
2024-04-09T12:13:46.967Z,39.24
2024-04-09T12:14:49.921Z,39.77
2024-04-09T12:15:52.043Z,38.45
2024-04-09T12:16:54.762Z,38.73
2024-04-09T12:17:57.678Z,39.66
2024-04-09T12:19:00.653Z,39.74
2024-04-09T12:20:05.177Z,42.20
2024-04-09T12:21:08.538Z,40.06
2024-04-09T12:22:14.709Z,39.80
2024-04-09T12:23:21.021Z,41.78
2024-04-09T12:24:28.177Z,40.29
2024-04-09T12:25:30.630Z,40.52
2024-04-09T12:26:32.764Z,40.10
2024-04-09T12:27:34.835Z,41.68
2024-04-09T12:28:36.844Z,39.61
2024-04-09T12:29:39.741Z,40.47
2024-04-09T12:30:42.279Z,40.15
2024-04-09T12:31:44.445Z,41.77
2024-04-09T12:32:46.797Z,40.54
2024-04-09T12:33:50.097Z,40.43
2024-04-09T12:34:53.507Z,40.38
2024-04-09T12:35:55.469Z,41.43
2024-04-09T12:36:57.318Z,41.19
2024-04-09T12:37:59.359Z,42.00
2024-04-09T12:39:05.093Z,42.95
2024-04-09T12:40:08.856Z,44.02
2024-04-09T12:41:12.644Z,42.46
2024-04-09T12:42:15.161Z,41.28
2024-04-09T12:43:17.269Z,40.19
2024-04-09T12:44:20.730Z,38.92
2024-04-09T12:45:23.098Z,39.44
2024-04-09T12:46:25.572Z,43.22
2024-04-09T12:47:27.915Z,41.79
2024-04-09T12:48:29.982Z,43.61
2024-04-09T12:49:38.868Z,42.43
2024-04-09T12:50:47.617Z,40.75
2024-04-09T12:51:50.000Z,40.90
2024-04-09T12:52:51.915Z,40.86
2024-04-09T12:53:55.902Z,41.46
2024-04-09T12:54:59.024Z,41.06
2024-04-09T12:56:01.146Z,43.54
2024-04-09T12:57:03.182Z,41.99
2024-04-09T12:58:05.145Z,41.62
2024-04-09T12:59:07.100Z,42.49
2024-04-09T13:01:33.086Z,40.32
2024-04-09T13:02:35.860Z,42.62
2024-04-09T13:03:39.616Z,41.22
2024-04-09T13:04:42.539Z,39.78
2024-04-09T13:05:44.809Z,39.00
2024-04-09T13:06:47.104Z,40.69
2024-04-09T13:07:51.264Z,41.55
2024-04-09T13:08:54.648Z,39.39
2024-04-09T13:09:59.892Z,39.55
2024-04-09T13:11:02.053Z,39.41
2024-04-09T13:12:04.921Z,41.08
2024-04-09T13:13:08.801Z,40.88
2024-04-09T13:14:12.294Z,41.98
2024-04-09T13:16:44.316Z,40.90
2024-04-09T13:16:50.296Z,42.02
2024-04-09T13:17:55.307Z,39.65
2024-04-09T13:18:57.769Z,42.37
2024-04-09T13:20:00.154Z,41.60
2024-04-09T13:21:03.590Z,40.00
2024-04-09T13:22:06.730Z,39.84
2024-04-09T13:23:08.723Z,40.02
2024-04-09T13:24:11.542Z,41.18
2024-04-09T13:25:13.525Z,43.00
2024-04-09T13:26:15.787Z,39.89
2024-04-09T13:27:17.735Z,39.51
2024-04-09T13:28:19.647Z,38.81
2024-04-09T13:29:21.802Z,39.66
2024-04-09T13:30:25.594Z,40.88
2024-04-09T13:31:28.782Z,40.28
2024-04-09T13:32:31.348Z,41.09
2024-04-09T13:33:33.630Z,42.22
2024-04-09T13:34:35.864Z,40.25
2024-04-09T13:35:37.873Z,39.95
2024-04-09T13:36:40.153Z,40.48
2024-04-09T13:37:44.416Z,39.77
2024-04-09T13:38:49.616Z,41.84
2024-04-09T13:39:51.684Z,41.41
2024-04-09T13:40:55.726Z,41.60
2024-04-09T13:41:58.196Z,40.76
2024-04-09T13:43:00.049Z,40.50
2024-04-09T13:44:02.105Z,41.21
2024-04-09T13:45:05.028Z,40.35
2024-04-09T13:46:06.852Z,42.49
2024-04-09T13:47:08.856Z,41.43
2024-04-09T13:48:13.681Z,42.03
2024-04-09T13:49:15.863Z,42.56
2024-04-09T13:50:18.754Z,41.16
2024-04-09T13:51:21.116Z,41.92
2024-04-09T13:52:23.598Z,41.30
2024-04-09T13:53:25.433Z,40.59
2024-04-09T13:54:28.289Z,39.65
2024-04-09T13:55:30.179Z,40.03